Jansen, Canada
Current Conditions -  °F | °C
As of 7:00 AM on Thursday 18 Dec 2014 (Local Time) from CYXE Reporting Station
Freezing Drizzle Freezing Drizzle  
Wind Chill: 12°   Ceiling: 300
Heat Index: 21°   Visibility: 3mi
Dew Point: 21°   Wind: 8mph
Humidity: 100%   Direction: 190°S
Pressure: 29.92"   Gusts: NA
Location:  51.78°N, 104.72°W
Report Text: CYXE 181300Z 19007KT 3SM -FZDZ BR OVC003 M06/M06 A2992 RMK ST8 SLP166
Loading
Personal Weather Stations






























Interactive Weather Map New forecast layout! Learn more

10-Day Weather Forecast

Advertisements
Track Severe Weather on mobile